sensor_id;sensor_type;location;lat;lon;timestamp;temperature;humidity
56044;DHT22;41912;51.022;3.664;2023-06-10T00:00:34;25.40;66.50
56044;DHT22;41912;51.022;3.664;2023-06-10T00:03:00;25.30;66.80
56044;DHT22;41912;51.022;3.664;2023-06-10T00:05:26;25.20;66.90
56044;DHT22;41912;51.022;3.664;2023-06-10T00:07:55;25.30;67.00
56044;DHT22;41912;51.022;3.664;2023-06-10T00:10:22;25.20;67.10
56044;DHT22;41912;51.022;3.664;2023-06-10T00:12:47;25.20;67.60
56044;DHT22;41912;51.022;3.664;2023-06-10T00:15:13;25.20;67.50
56044;DHT22;41912;51.022;3.664;2023-06-10T00:17:39;25.10;67.50
56044;DHT22;41912;51.022;3.664;2023-06-10T00:20:08;25.00;67.30
56044;DHT22;41912;51.022;3.664;2023-06-10T00:22:36;25.00;67.30
56044;DHT22;41912;51.022;3.664;2023-06-10T00:25:01;25.00;67.40
56044;DHT22;41912;51.022;3.664;2023-06-10T00:27:29;25.00;67.70
56044;DHT22;41912;51.022;3.664;2023-06-10T00:30:01;24.90;67.80
56044;DHT22;41912;51.022;3.664;2023-06-10T00:32:29;24.90;68.20
56044;DHT22;41912;51.022;3.664;2023-06-10T00:34:55;24.80;68.40
56044;DHT22;41912;51.022;3.664;2023-06-10T00:37:21;24.80;68.60
56044;DHT22;41912;51.022;3.664;2023-06-10T00:39:46;24.80;68.80
56044;DHT22;41912;51.022;3.664;2023-06-10T00:42:12;24.70;69.10
56044;DHT22;41912;51.022;3.664;2023-06-10T00:44:38;24.70;69.30
56044;DHT22;41912;51.022;3.664;2023-06-10T00:47:04;24.60;69.20
56044;DHT22;41912;51.022;3.664;2023-06-10T00:49:33;24.60;69.70
56044;DHT22;41912;51.022;3.664;2023-06-10T00:52:00;24.60;69.40
56044;DHT22;41912;51.022;3.664;2023-06-10T00:54:26;24.60;69.80
56044;DHT22;41912;51.022;3.664;2023-06-10T00:56:53;24.50;69.20
56044;DHT22;41912;51.022;3.664;2023-06-10T00:59:18;24.50;69.20
56044;DHT22;41912;51.022;3.664;2023-06-10T01:02:04;24.50;69.70
56044;DHT22;41912;51.022;3.664;2023-06-10T01:04:29;24.50;69.50
56044;DHT22;41912;51.022;3.664;2023-06-10T01:14:36;24.30;69.70
56044;DHT22;41912;51.022;3.664;2023-06-10T01:17:02;24.30;69.90
56044;DHT22;41912;51.022;3.664;2023-06-10T01:19:28;24.30;70.00
56044;DHT22;41912;51.022;3.664;2023-06-10T01:21:56;24.30;70.30
56044;DHT22;41912;51.022;3.664;2023-06-10T01:24:28;24.30;70.00
56044;DHT22;41912;51.022;3.664;2023-06-10T01:27:00;24.20;70.30
56044;DHT22;41912;51.022;3.664;2023-06-10T01:29:33;24.20;70.30
56044;DHT22;41912;51.022;3.664;2023-06-10T01:32:08;24.20;70.10
56044;DHT22;41912;51.022;3.664;2023-06-10T01:34:38;24.20;70.50
56044;DHT22;41912;51.022;3.664;2023-06-10T01:37:05;24.10;70.70
56044;DHT22;41912;51.022;3.664;2023-06-10T01:39:32;24.00;70.70
56044;DHT22;41912;51.022;3.664;2023-06-10T01:41:58;24.00;70.90
56044;DHT22;41912;51.022;3.664;2023-06-10T01:44:24;24.00;70.70
56044;DHT22;41912;51.022;3.664;2023-06-10T01:46:50;24.00;70.90
56044;DHT22;41912;51.022;3.664;2023-06-10T01:49:15;24.00;70.70
56044;DHT22;41912;51.022;3.664;2023-06-10T01:51:41;24.00;71.00
56044;DHT22;41912;51.022;3.664;2023-06-10T01:54:07;23.90;71.10
56044;DHT22;41912;51.022;3.664;2023-06-10T01:56:33;23.90;71.30
56044;DHT22;41912;51.022;3.664;2023-06-10T01:58:58;23.80;71.90
56044;DHT22;41912;51.022;3.664;2023-06-10T02:01:25;23.80;71.40
56044;DHT22;41912;51.022;3.664;2023-06-10T02:03:51;23.80;71.50
56044;DHT22;41912;51.022;3.664;2023-06-10T02:06:17;23.80;71.80
56044;DHT22;41912;51.022;3.664;2023-06-10T02:08:42;23.80;71.70
56044;DHT22;41912;51.022;3.664;2023-06-10T02:11:08;23.70;72.00
56044;DHT22;41912;51.022;3.664;2023-06-10T02:13:34;23.60;72.70
56044;DHT22;41912;51.022;3.664;2023-06-10T02:16:00;23.60;72.60
56044;DHT22;41912;51.022;3.664;2023-06-10T02:18:26;23.60;72.50
56044;DHT22;41912;51.022;3.664;2023-06-10T02:20:53;23.60;72.80
56044;DHT22;41912;51.022;3.664;2023-06-10T02:23:19;23.50;72.80
56044;DHT22;41912;51.022;3.664;2023-06-10T02:25:44;23.50;73.10
56044;DHT22;41912;51.022;3.664;2023-06-10T02:28:10;23.50;73.00
56044;DHT22;41912;51.022;3.664;2023-06-10T02:30:39;23.50;73.00
56044;DHT22;41912;51.022;3.664;2023-06-10T02:33:05;23.50;73.40
56044;DHT22;41912;51.022;3.664;2023-06-10T02:35:30;23.50;73.50
56044;DHT22;41912;51.022;3.664;2023-06-10T02:37:56;23.40;74.50
56044;DHT22;41912;51.022;3.664;2023-06-10T02:40:21;23.40;74.00
56044;DHT22;41912;51.022;3.664;2023-06-10T02:42:47;23.30;74.00
56044;DHT22;41912;51.022;3.664;2023-06-10T02:45:13;23.30;74.50
56044;DHT22;41912;51.022;3.664;2023-06-10T02:47:38;23.20;74.20
56044;DHT22;41912;51.022;3.664;2023-06-10T02:50:05;23.20;74.50
56044;DHT22;41912;51.022;3.664;2023-06-10T02:52:31;23.20;74.90
56044;DHT22;41912;51.022;3.664;2023-06-10T02:54:57;23.20;75.50
56044;DHT22;41912;51.022;3.664;2023-06-10T02:57:22;23.30;74.90
56044;DHT22;41912;51.022;3.664;2023-06-10T02:59:48;23.20;74.90
56044;DHT22;41912;51.022;3.664;2023-06-10T03:02:14;23.20;75.20
56044;DHT22;41912;51.022;3.664;2023-06-10T03:04:40;23.20;75.30
56044;DHT22;41912;51.022;3.664;2023-06-10T03:07:06;23.10;75.50
56044;DHT22;41912;51.022;3.664;2023-06-10T03:09:32;23.10;75.60
56044;DHT22;41912;51.022;3.664;2023-06-10T03:11:58;23.10;75.90
56044;DHT22;41912;51.022;3.664;2023-06-10T03:14:25;23.00;76.10
56044;DHT22;41912;51.022;3.664;2023-06-10T03:16:51;23.00;76.40
56044;DHT22;41912;51.022;3.664;2023-06-10T03:19:17;23.00;76.50
56044;DHT22;41912;51.022;3.664;2023-06-10T03:21:44;22.90;76.70
56044;DHT22;41912;51.022;3.664;2023-06-10T03:24:10;22.90;76.90
56044;DHT22;41912;51.022;3.664;2023-06-10T03:26:36;22.90;76.70
56044;DHT22;41912;51.022;3.664;2023-06-10T03:29:02;22.90;77.00
56044;DHT22;41912;51.022;3.664;2023-06-10T03:31:27;22.90;77.00
56044;DHT22;41912;51.022;3.664;2023-06-10T03:33:53;22.90;77.40
56044;DHT22;41912;51.022;3.664;2023-06-10T03:36:18;22.90;77.40
56044;DHT22;41912;51.022;3.664;2023-06-10T03:38:44;22.90;77.50
56044;DHT22;41912;51.022;3.664;2023-06-10T03:41:10;22.80;78.20
56044;DHT22;41912;51.022;3.664;2023-06-10T03:43:35;22.80;77.70
56044;DHT22;41912;51.022;3.664;2023-06-10T03:46:01;22.80;77.70
56044;DHT22;41912;51.022;3.664;2023-06-10T03:48:26;22.80;78.00
56044;DHT22;41912;51.022;3.664;2023-06-10T03:50:52;22.70;78.10
56044;DHT22;41912;51.022;3.664;2023-06-10T03:53:18;22.70;78.40
56044;DHT22;41912;51.022;3.664;2023-06-10T03:55:43;22.70;78.90
56044;DHT22;41912;51.022;3.664;2023-06-10T03:58:10;22.70;78.90
56044;DHT22;41912;51.022;3.664;2023-06-10T04:00:38;22.70;79.00
56044;DHT22;41912;51.022;3.664;2023-06-10T04:03:08;22.60;79.20
56044;DHT22;41912;51.022;3.664;2023-06-10T04:05:34;22.60;79.40
56044;DHT22;41912;51.022;3.664;2023-06-10T04:08:00;22.60;79.60
56044;DHT22;41912;51.022;3.664;2023-06-10T04:10:27;22.60;79.70
56044;DHT22;41912;51.022;3.664;2023-06-10T04:12:52;22.60;79.80
56044;DHT22;41912;51.022;3.664;2023-06-10T04:15:18;22.60;80.00
56044;DHT22;41912;51.022;3.664;2023-06-10T04:17:44;22.60;80.30
56044;DHT22;41912;51.022;3.664;2023-06-10T04:20:10;22.60;80.50
56044;DHT22;41912;51.022;3.664;2023-06-10T04:22:35;22.50;80.40
56044;DHT22;41912;51.022;3.664;2023-06-10T04:25:01;22.50;80.70
56044;DHT22;41912;51.022;3.664;2023-06-10T04:27:28;22.40;80.90
56044;DHT22;41912;51.022;3.664;2023-06-10T04:29:54;22.50;81.40
56044;DHT22;41912;51.022;3.664;2023-06-10T04:32:19;22.50;81.50
56044;DHT22;41912;51.022;3.664;2023-06-10T04:34:45;22.50;81.30
56044;DHT22;41912;51.022;3.664;2023-06-10T04:37:11;22.50;81.50
56044;DHT22;41912;51.022;3.664;2023-06-10T04:39:36;22.60;81.30
56044;DHT22;41912;51.022;3.664;2023-06-10T04:42:02;22.60;81.40
56044;DHT22;41912;51.022;3.664;2023-06-10T04:44:28;22.60;81.90
56044;DHT22;41912;51.022;3.664;2023-06-10T04:46:53;22.50;81.90
56044;DHT22;41912;51.022;3.664;2023-06-10T04:49:20;22.50;82.10
56044;DHT22;41912;51.022;3.664;2023-06-10T04:51:45;22.60;82.50
56044;DHT22;41912;51.022;3.664;2023-06-10T04:54:11;22.60;82.40
56044;DHT22;41912;51.022;3.664;2023-06-10T04:56:37;22.60;82.50
56044;DHT22;41912;51.022;3.664;2023-06-10T04:59:02;22.60;82.30
56044;DHT22;41912;51.022;3.664;2023-06-10T05:01:28;22.60;82.20
56044;DHT22;41912;51.022;3.664;2023-06-10T05:03:54;22.60;82.40
56044;DHT22;41912;51.022;3.664;2023-06-10T05:06:19;22.60;82.50
56044;DHT22;41912;51.022;3.664;2023-06-10T05:08:45;22.60;82.80
56044;DHT22;41912;51.022;3.664;2023-06-10T05:11:10;22.60;82.70
56044;DHT22;41912;51.022;3.664;2023-06-10T05:13:36;22.60;82.80
56044;DHT22;41912;51.022;3.664;2023-06-10T05:16:02;22.60;82.90
56044;DHT22;41912;51.022;3.664;2023-06-10T05:18:27;22.60;83.10
56044;DHT22;41912;51.022;3.664;2023-06-10T05:20:53;22.60;82.90
56044;DHT22;41912;51.022;3.664;2023-06-10T05:23:22;22.70;82.80
56044;DHT22;41912;51.022;3.664;2023-06-10T05:25:47;22.70;82.70
56044;DHT22;41912;51.022;3.664;2023-06-10T05:28:13;22.70;83.00
56044;DHT22;41912;51.022;3.664;2023-06-10T05:30:39;22.70;83.50
56044;DHT22;41912;51.022;3.664;2023-06-10T05:33:04;22.70;83.60
56044;DHT22;41912;51.022;3.664;2023-06-10T05:35:30;22.60;83.10
56044;DHT22;41912;51.022;3.664;2023-06-10T05:37:56;22.70;83.70
56044;DHT22;41912;51.022;3.664;2023-06-10T05:40:22;22.60;83.30
56044;DHT22;41912;51.022;3.664;2023-06-10T05:42:47;22.70;83.20
56044;DHT22;41912;51.022;3.664;2023-06-10T05:45:13;22.80;83.70
56044;DHT22;41912;51.022;3.664;2023-06-10T05:47:39;22.80;83.20
56044;DHT22;41912;51.022;3.664;2023-06-10T05:50:05;22.80;83.40
56044;DHT22;41912;51.022;3.664;2023-06-10T05:52:33;22.90;83.60
56044;DHT22;41912;51.022;3.664;2023-06-10T05:54:59;22.90;83.30
56044;DHT22;41912;51.022;3.664;2023-06-10T05:57:25;23.00;83.60
56044;DHT22;41912;51.022;3.664;2023-06-10T05:59:51;23.00;83.20
56044;DHT22;41912;51.022;3.664;2023-06-10T06:02:17;23.10;82.70
56044;DHT22;41912;51.022;3.664;2023-06-10T06:04:43;23.00;82.70
56044;DHT22;41912;51.022;3.664;2023-06-10T06:07:08;23.00;82.00
56044;DHT22;41912;51.022;3.664;2023-06-10T06:09:34;23.10;82.10
56044;DHT22;41912;51.022;3.664;2023-06-10T06:12:00;23.10;82.60
56044;DHT22;41912;51.022;3.664;2023-06-10T06:14:25;23.10;82.20
56044;DHT22;41912;51.022;3.664;2023-06-10T06:16:51;23.20;82.30
56044;DHT22;41912;51.022;3.664;2023-06-10T06:19:16;23.20;82.40
56044;DHT22;41912;51.022;3.664;2023-06-10T06:21:42;23.20;82.10
56044;DHT22;41912;51.022;3.664;2023-06-10T06:24:08;23.30;81.90
56044;DHT22;41912;51.022;3.664;2023-06-10T06:26:33;23.30;82.10
56044;DHT22;41912;51.022;3.664;2023-06-10T06:28:59;23.40;82.00
56044;DHT22;41912;51.022;3.664;2023-06-10T06:31:25;23.40;81.90
56044;DHT22;41912;51.022;3.664;2023-06-10T06:33:50;23.50;81.70
56044;DHT22;41912;51.022;3.664;2023-06-10T06:36:16;23.60;81.50
56044;DHT22;41912;51.022;3.664;2023-06-10T06:38:41;23.60;82.30
56044;DHT22;41912;51.022;3.664;2023-06-10T06:41:07;23.70;81.60
56044;DHT22;41912;51.022;3.664;2023-06-10T06:43:33;23.80;81.50
56044;DHT22;41912;51.022;3.664;2023-06-10T06:45:59;23.80;80.20
56044;DHT22;41912;51.022;3.664;2023-06-10T06:48:25;23.80;80.60
56044;DHT22;41912;51.022;3.664;2023-06-10T06:50:50;23.80;80.30
56044;DHT22;41912;51.022;3.664;2023-06-10T06:53:16;23.90;80.40
56044;DHT22;41912;51.022;3.664;2023-06-10T06:55:42;24.00;80.10
56044;DHT22;41912;51.022;3.664;2023-06-10T06:58:07;24.10;79.50
56044;DHT22;41912;51.022;3.664;2023-06-10T07:00:33;24.10;79.40
56044;DHT22;41912;51.022;3.664;2023-06-10T07:02:58;24.20;79.70
56044;DHT22;41912;51.022;3.664;2023-06-10T07:05:25;24.20;79.90
56044;DHT22;41912;51.022;3.664;2023-06-10T07:07:54;24.30;79.70
56044;DHT22;41912;51.022;3.664;2023-06-10T07:10:24;24.30;79.70
56044;DHT22;41912;51.022;3.664;2023-06-10T07:12:50;24.30;78.70
56044;DHT22;41912;51.022;3.664;2023-06-10T07:15:16;24.40;79.20
56044;DHT22;41912;51.022;3.664;2023-06-10T07:17:42;24.50;81.10
56044;DHT22;41912;51.022;3.664;2023-06-10T07:20:08;24.50;79.00
56044;DHT22;41912;51.022;3.664;2023-06-10T07:22:33;24.60;78.80
56044;DHT22;41912;51.022;3.664;2023-06-10T07:24:59;24.70;78.90
56044;DHT22;41912;51.022;3.664;2023-06-10T07:27:25;24.80;78.70
56044;DHT22;41912;51.022;3.664;2023-06-10T07:29:51;24.80;77.60
56044;DHT22;41912;51.022;3.664;2023-06-10T07:32:17;24.90;77.60
56044;DHT22;41912;51.022;3.664;2023-06-10T07:34:43;25.00;77.10
56044;DHT22;41912;51.022;3.664;2023-06-10T07:37:08;25.00;77.20
56044;DHT22;41912;51.022;3.664;2023-06-10T07:39:34;25.00;77.10
56044;DHT22;41912;51.022;3.664;2023-06-10T07:42:00;25.00;76.10
56044;DHT22;41912;51.022;3.664;2023-06-10T07:44:26;25.10;77.00
56044;DHT22;41912;51.022;3.664;2023-06-10T07:46:51;25.10;76.70
56044;DHT22;41912;51.022;3.664;2023-06-10T07:49:17;25.20;76.50
56044;DHT22;41912;51.022;3.664;2023-06-10T07:51:43;25.20;78.00
56044;DHT22;41912;51.022;3.664;2023-06-10T07:54:08;25.30;77.00
56044;DHT22;41912;51.022;3.664;2023-06-10T07:56:34;25.40;75.50
56044;DHT22;41912;51.022;3.664;2023-06-10T07:58:59;25.40;75.90
56044;DHT22;41912;51.022;3.664;2023-06-10T08:01:25;25.50;76.30
56044;DHT22;41912;51.022;3.664;2023-06-10T08:03:51;25.60;75.10
56044;DHT22;41912;51.022;3.664;2023-06-10T08:06:16;25.60;76.30
56044;DHT22;41912;51.022;3.664;2023-06-10T08:08:43;25.60;75.50
56044;DHT22;41912;51.022;3.664;2023-06-10T08:11:10;25.70;75.10
56044;DHT22;41912;51.022;3.664;2023-06-10T08:13:36;25.70;73.80
56044;DHT22;41912;51.022;3.664;2023-06-10T08:16:02;25.80;73.30
56044;DHT22;41912;51.022;3.664;2023-06-10T08:18:28;25.80;74.00
56044;DHT22;41912;51.022;3.664;2023-06-10T08:20:54;25.90;74.40
56044;DHT22;41912;51.022;3.664;2023-06-10T08:23:20;25.90;75.30
56044;DHT22;41912;51.022;3.664;2023-06-10T08:25:46;26.00;74.40
56044;DHT22;41912;51.022;3.664;2023-06-10T08:28:12;26.10;73.30
56044;DHT22;41912;51.022;3.664;2023-06-10T08:30:37;26.10;73.30
56044;DHT22;41912;51.022;3.664;2023-06-10T08:33:03;26.20;73.00
56044;DHT22;41912;51.022;3.664;2023-06-10T08:35:29;26.30;72.30
56044;DHT22;41912;51.022;3.664;2023-06-10T08:37:55;26.30;70.80
56044;DHT22;41912;51.022;3.664;2023-06-10T08:40:20;26.40;71.40
56044;DHT22;41912;51.022;3.664;2023-06-10T08:42:53;26.50;73.00
56044;DHT22;41912;51.022;3.664;2023-06-10T08:45:23;26.60;70.40
56044;DHT22;41912;51.022;3.664;2023-06-10T08:47:50;26.60;70.30
56044;DHT22;41912;51.022;3.664;2023-06-10T08:50:19;26.60;69.90
56044;DHT22;41912;51.022;3.664;2023-06-10T08:52:48;26.70;70.40
56044;DHT22;41912;51.022;3.664;2023-06-10T08:55:18;26.80;70.90
56044;DHT22;41912;51.022;3.664;2023-06-10T08:57:45;26.90;71.00
56044;DHT22;41912;51.022;3.664;2023-06-10T09:00:13;27.00;71.00
56044;DHT22;41912;51.022;3.664;2023-06-10T09:02:40;27.00;69.90
56044;DHT22;41912;51.022;3.664;2023-06-10T09:05:07;27.10;69.10
56044;DHT22;41912;51.022;3.664;2023-06-10T09:07:33;27.20;67.80
56044;DHT22;41912;51.022;3.664;2023-06-10T09:10:03;27.20;69.30
56044;DHT22;41912;51.022;3.664;2023-06-10T09:12:29;27.30;68.10
56044;DHT22;41912;51.022;3.664;2023-06-10T09:14:55;27.40;68.90
56044;DHT22;41912;51.022;3.664;2023-06-10T09:17:21;27.50;68.20
56044;DHT22;41912;51.022;3.664;2023-06-10T09:19:47;27.60;68.30
56044;DHT22;41912;51.022;3.664;2023-06-10T09:22:14;27.60;67.70
56044;DHT22;41912;51.022;3.664;2023-06-10T09:24:40;27.70;67.60
56044;DHT22;41912;51.022;3.664;2023-06-10T09:27:08;27.70;66.40
56044;DHT22;41912;51.022;3.664;2023-06-10T09:29:55;27.80;67.00
56044;DHT22;41912;51.022;3.664;2023-06-10T09:32:21;27.90;66.20
56044;DHT22;41912;51.022;3.664;2023-06-10T09:34:47;28.00;64.20
56044;DHT22;41912;51.022;3.664;2023-06-10T09:37:20;28.10;65.80
56044;DHT22;41912;51.022;3.664;2023-06-10T09:40:03;28.20;67.10
56044;DHT22;41912;51.022;3.664;2023-06-10T09:42:33;28.30;64.70
56044;DHT22;41912;51.022;3.664;2023-06-10T09:44:59;28.30;65.50
56044;DHT22;41912;51.022;3.664;2023-06-10T09:47:25;28.40;67.10
56044;DHT22;41912;51.022;3.664;2023-06-10T09:49:51;28.40;66.20
56044;DHT22;41912;51.022;3.664;2023-06-10T09:52:27;28.50;67.60
56044;DHT22;41912;51.022;3.664;2023-06-10T09:54:55;28.60;65.40
56044;DHT22;41912;51.022;3.664;2023-06-10T09:57:24;28.70;64.40
56044;DHT22;41912;51.022;3.664;2023-06-10T09:59:53;28.80;64.30
56044;DHT22;41912;51.022;3.664;2023-06-10T10:02:19;28.90;63.50
56044;DHT22;41912;51.022;3.664;2023-06-10T10:04:45;28.90;64.20
56044;DHT22;41912;51.022;3.664;2023-06-10T10:07:11;29.00;62.70
56044;DHT22;41912;51.022;3.664;2023-06-10T10:09:37;29.10;63.00
56044;DHT22;41912;51.022;3.664;2023-06-10T10:12:12;29.20;64.70
56044;DHT22;41912;51.022;3.664;2023-06-10T10:14:39;29.30;60.60
56044;DHT22;41912;51.022;3.664;2023-06-10T10:17:09;29.30;62.70
56044;DHT22;41912;51.022;3.664;2023-06-10T10:19:40;29.40;62.50
56044;DHT22;41912;51.022;3.664;2023-06-10T10:22:17;29.50;61.60
56044;DHT22;41912;51.022;3.664;2023-06-10T10:24:50;29.60;60.60
56044;DHT22;41912;51.022;3.664;2023-06-10T10:27:33;29.60;60.50
56044;DHT22;41912;51.022;3.664;2023-06-10T10:30:02;29.70;60.20
56044;DHT22;41912;51.022;3.664;2023-06-10T10:32:55;29.80;60.50
56044;DHT22;41912;51.022;3.664;2023-06-10T10:35:23;29.80;58.50
56044;DHT22;41912;51.022;3.664;2023-06-10T10:37:54;29.90;59.20
56044;DHT22;41912;51.022;3.664;2023-06-10T10:40:23;29.90;57.70
56044;DHT22;41912;51.022;3.664;2023-06-10T10:42:50;30.10;57.70
56044;DHT22;41912;51.022;3.664;2023-06-10T10:45:17;30.10;56.60
56044;DHT22;41912;51.022;3.664;2023-06-10T10:47:46;30.20;55.20
56044;DHT22;41912;51.022;3.664;2023-06-10T10:50:15;30.20;55.10
56044;DHT22;41912;51.022;3.664;2023-06-10T10:53:02;30.20;56.20
56044;DHT22;41912;51.022;3.664;2023-06-10T10:55:28;30.30;56.80
56044;DHT22;41912;51.022;3.664;2023-06-10T10:57:57;30.40;56.60
56044;DHT22;41912;51.022;3.664;2023-06-10T11:00:31;30.40;57.10
56044;DHT22;41912;51.022;3.664;2023-06-10T11:02:59;30.50;57.20
56044;DHT22;41912;51.022;3.664;2023-06-10T11:05:40;30.60;55.60
56044;DHT22;41912;51.022;3.664;2023-06-10T11:08:08;30.70;56.10
56044;DHT22;41912;51.022;3.664;2023-06-10T11:10:37;30.70;55.50
56044;DHT22;41912;51.022;3.664;2023-06-10T11:13:13;30.80;56.00
56044;DHT22;41912;51.022;3.664;2023-06-10T11:15:49;30.90;56.10
56044;DHT22;41912;51.022;3.664;2023-06-10T11:28:40;31.10;53.20
56044;DHT22;41912;51.022;3.664;2023-06-10T11:31:07;31.10;53.30
56044;DHT22;41912;51.022;3.664;2023-06-10T11:33:32;31.20;52.80
56044;DHT22;41912;51.022;3.664;2023-06-10T11:35:58;31.30;55.10
56044;DHT22;41912;51.022;3.664;2023-06-10T11:38:24;31.30;50.80
56044;DHT22;41912;51.022;3.664;2023-06-10T11:40:51;31.40;52.00
56044;DHT22;41912;51.022;3.664;2023-06-10T11:43:17;31.40;51.70
56044;DHT22;41912;51.022;3.664;2023-06-10T11:45:44;31.50;52.40
56044;DHT22;41912;51.022;3.664;2023-06-10T11:48:10;31.60;52.30
56044;DHT22;41912;51.022;3.664;2023-06-10T11:50:36;31.70;51.40
56044;DHT22;41912;51.022;3.664;2023-06-10T11:53:03;31.70;50.10
56044;DHT22;41912;51.022;3.664;2023-06-10T11:55:49;31.80;50.50
56044;DHT22;41912;51.022;3.664;2023-06-10T11:58:17;31.80;49.90
56044;DHT22;41912;51.022;3.664;2023-06-10T12:00:54;31.80;50.30
56044;DHT22;41912;51.022;3.664;2023-06-10T12:03:21;31.80;50.00
56044;DHT22;41912;51.022;3.664;2023-06-10T12:06:03;31.90;50.80
56044;DHT22;41912;51.022;3.664;2023-06-10T12:08:29;32.00;50.10
56044;DHT22;41912;51.022;3.664;2023-06-10T12:10:56;32.10;49.50
56044;DHT22;41912;51.022;3.664;2023-06-10T12:13:26;32.20;49.50
56044;DHT22;41912;51.022;3.664;2023-06-10T12:15:52;32.20;48.10
56044;DHT22;41912;51.022;3.664;2023-06-10T12:18:18;32.30;49.70
56044;DHT22;41912;51.022;3.664;2023-06-10T12:20:44;32.30;49.40
56044;DHT22;41912;51.022;3.664;2023-06-10T12:23:11;32.30;48.70
56044;DHT22;41912;51.022;3.664;2023-06-10T12:25:37;32.30;47.70
56044;DHT22;41912;51.022;3.664;2023-06-10T12:28:04;32.50;48.80
56044;DHT22;41912;51.022;3.664;2023-06-10T12:30:32;32.50;49.10
56044;DHT22;41912;51.022;3.664;2023-06-10T12:32:58;32.60;47.90
56044;DHT22;41912;51.022;3.664;2023-06-10T12:35:25;32.60;48.40
56044;DHT22;41912;51.022;3.664;2023-06-10T12:40:28;32.70;46.80
56044;DHT22;41912;51.022;3.664;2023-06-10T12:42:55;32.80;46.10
56044;DHT22;41912;51.022;3.664;2023-06-10T12:45:35;32.80;47.00
56044;DHT22;41912;51.022;3.664;2023-06-10T12:50:31;32.60;45.40
56044;DHT22;41912;51.022;3.664;2023-06-10T12:52:57;32.60;45.90
56044;DHT22;41912;51.022;3.664;2023-06-10T12:55:23;32.70;46.50
56044;DHT22;41912;51.022;3.664;2023-06-10T12:57:49;32.80;46.40
56044;DHT22;41912;51.022;3.664;2023-06-10T13:00:16;32.90;47.60
56044;DHT22;41912;51.022;3.664;2023-06-10T13:02:42;33.00;46.70
56044;DHT22;41912;51.022;3.664;2023-06-10T13:05:08;33.10;45.50
56044;DHT22;41912;51.022;3.664;2023-06-10T13:07:33;33.10;43.60
56044;DHT22;41912;51.022;3.664;2023-06-10T13:09:59;33.10;44.80
56044;DHT22;41912;51.022;3.664;2023-06-10T13:12:26;33.00;44.20
56044;DHT22;41912;51.022;3.664;2023-06-10T13:14:54;32.90;43.20
56044;DHT22;41912;51.022;3.664;2023-06-10T13:17:20;32.80;44.40
56044;DHT22;41912;51.022;3.664;2023-06-10T13:19:46;32.80;43.60
56044;DHT22;41912;51.022;3.664;2023-06-10T13:22:12;32.90;44.00
56044;DHT22;41912;51.022;3.664;2023-06-10T13:24:40;33.00;44.30
56044;DHT22;41912;51.022;3.664;2023-06-10T13:27:09;33.10;44.10
56044;DHT22;41912;51.022;3.664;2023-06-10T13:29:34;33.20;45.30
56044;DHT22;41912;51.022;3.664;2023-06-10T13:32:00;33.20;44.40
56044;DHT22;41912;51.022;3.664;2023-06-10T13:34:26;33.30;43.90
56044;DHT22;41912;51.022;3.664;2023-06-10T13:36:51;33.30;44.50
56044;DHT22;41912;51.022;3.664;2023-06-10T13:39:17;33.40;43.50
56044;DHT22;41912;51.022;3.664;2023-06-10T13:41:43;33.40;43.90
56044;DHT22;41912;51.022;3.664;2023-06-10T13:44:08;33.40;43.20
56044;DHT22;41912;51.022;3.664;2023-06-10T13:46:34;33.40;44.10
56044;DHT22;41912;51.022;3.664;2023-06-10T13:49:00;33.50;42.40
56044;DHT22;41912;51.022;3.664;2023-06-10T13:51:25;33.60;44.20
56044;DHT22;41912;51.022;3.664;2023-06-10T13:53:51;33.60;43.80
56044;DHT22;41912;51.022;3.664;2023-06-10T13:56:18;33.70;43.50
56044;DHT22;41912;51.022;3.664;2023-06-10T13:58:43;33.60;43.30
56044;DHT22;41912;51.022;3.664;2023-06-10T14:01:09;33.60;43.90
56044;DHT22;41912;51.022;3.664;2023-06-10T14:03:35;33.70;44.30
56044;DHT22;41912;51.022;3.664;2023-06-10T14:06:01;33.70;43.60
56044;DHT22;41912;51.022;3.664;2023-06-10T14:08:27;33.70;41.90
56044;DHT22;41912;51.022;3.664;2023-06-10T14:10:52;33.70;41.90
56044;DHT22;41912;51.022;3.664;2023-06-10T14:13:18;33.70;41.60
56044;DHT22;41912;51.022;3.664;2023-06-10T14:15:44;33.80;42.60
56044;DHT22;41912;51.022;3.664;2023-06-10T14:18:10;33.90;42.60
56044;DHT22;41912;51.022;3.664;2023-06-10T14:20:36;33.80;42.80
56044;DHT22;41912;51.022;3.664;2023-06-10T14:23:02;33.60;42.60
56044;DHT22;41912;51.022;3.664;2023-06-10T14:25:27;33.50;42.80
56044;DHT22;41912;51.022;3.664;2023-06-10T14:27:53;33.40;42.90
56044;DHT22;41912;51.022;3.664;2023-06-10T14:30:19;33.40;43.50
56044;DHT22;41912;51.022;3.664;2023-06-10T14:32:45;33.50;43.40
56044;DHT22;41912;51.022;3.664;2023-06-10T14:35:10;33.60;42.50
56044;DHT22;41912;51.022;3.664;2023-06-10T14:37:36;33.60;42.40
56044;DHT22;41912;51.022;3.664;2023-06-10T14:40:04;33.60;43.00
56044;DHT22;41912;51.022;3.664;2023-06-10T14:42:30;33.60;45.10
56044;DHT22;41912;51.022;3.664;2023-06-10T14:44:57;33.60;44.30
56044;DHT22;41912;51.022;3.664;2023-06-10T14:47:23;33.80;43.80
56044;DHT22;41912;51.022;3.664;2023-06-10T14:49:49;33.90;43.20
56044;DHT22;41912;51.022;3.664;2023-06-10T14:52:15;34.00;42.40
56044;DHT22;41912;51.022;3.664;2023-06-10T14:54:41;34.10;43.80
56044;DHT22;41912;51.022;3.664;2023-06-10T14:57:06;34.20;43.20
56044;DHT22;41912;51.022;3.664;2023-06-10T14:59:33;34.20;42.40
56044;DHT22;41912;51.022;3.664;2023-06-10T15:01:58;34.10;42.20
56044;DHT22;41912;51.022;3.664;2023-06-10T15:04:26;34.00;41.80
56044;DHT22;41912;51.022;3.664;2023-06-10T15:06:52;33.80;42.60
56044;DHT22;41912;51.022;3.664;2023-06-10T15:09:17;33.70;42.40
56044;DHT22;41912;51.022;3.664;2023-06-10T15:11:43;33.60;43.00
56044;DHT22;41912;51.022;3.664;2023-06-10T15:14:09;33.40;42.80
56044;DHT22;41912;51.022;3.664;2023-06-10T15:16:34;33.30;43.30
56044;DHT22;41912;51.022;3.664;2023-06-10T15:19:00;33.30;42.90
56044;DHT22;41912;51.022;3.664;2023-06-10T15:21:26;33.40;42.30
56044;DHT22;41912;51.022;3.664;2023-06-10T15:23:51;33.50;44.60
56044;DHT22;41912;51.022;3.664;2023-06-10T15:26:18;33.50;43.00
56044;DHT22;41912;51.022;3.664;2023-06-10T15:28:44;33.40;42.80
56044;DHT22;41912;51.022;3.664;2023-06-10T15:31:09;33.30;43.30
56044;DHT22;41912;51.022;3.664;2023-06-10T15:33:35;33.30;42.90
56044;DHT22;41912;51.022;3.664;2023-06-10T15:36:01;33.40;43.50
56044;DHT22;41912;51.022;3.664;2023-06-10T15:38:27;33.40;43.60
56044;DHT22;41912;51.022;3.664;2023-06-10T15:40:52;33.50;42.30
56044;DHT22;41912;51.022;3.664;2023-06-10T15:43:19;33.60;43.90
56044;DHT22;41912;51.022;3.664;2023-06-10T15:45:45;33.60;43.00
56044;DHT22;41912;51.022;3.664;2023-06-10T15:48:10;33.60;43.50
56044;DHT22;41912;51.022;3.664;2023-06-10T15:50:36;33.80;44.10